sensor_id;sensor_type;location;lat;lon;timestamp;P1;durP1;ratioP1;P2;durP2;ratioP2
438;SDS011;206;48.782;9.252;2022-08-07T00:01:05;2.70;;;2.43;;
438;SDS011;206;48.782;9.252;2022-08-07T00:03:31;2.67;;;2.00;;
438;SDS011;206;48.782;9.252;2022-08-07T00:05:57;2.00;;;1.90;;
438;SDS011;206;48.782;9.252;2022-08-07T00:08:23;7.33;;;1.97;;
438;SDS011;206;48.782;9.252;2022-08-07T00:10:48;8.70;;;2.03;;
438;SDS011;206;48.782;9.252;2022-08-07T00:13:15;2.10;;;1.67;;
438;SDS011;206;48.782;9.252;2022-08-07T00:15:41;2.67;;;2.50;;
438;SDS011;206;48.782;9.252;2022-08-07T00:18:07;2.27;;;1.90;;
438;SDS011;206;48.782;9.252;2022-08-07T00:20:34;2.30;;;2.10;;
438;SDS011;206;48.782;9.252;2022-08-07T00:23:00;2.87;;;1.63;;
438;SDS011;206;48.782;9.252;2022-08-07T00:25:26;1.93;;;1.90;;
438;SDS011;206;48.782;9.252;2022-08-07T00:27:52;1.80;;;1.53;;
438;SDS011;206;48.782;9.252;2022-08-07T00:30:17;2.57;;;1.87;;
438;SDS011;206;48.782;9.252;2022-08-07T00:32:47;3.63;;;1.80;;
438;SDS011;206;48.782;9.252;2022-08-07T00:35:13;2.53;;;1.47;;
438;SDS011;206;48.782;9.252;2022-08-07T00:37:39;2.60;;;1.47;;
438;SDS011;206;48.782;9.252;2022-08-07T00:40:05;5.60;;;1.97;;
438;SDS011;206;48.782;9.252;2022-08-07T00:42:31;3.70;;;1.90;;
438;SDS011;206;48.782;9.252;2022-08-07T00:44:58;3.20;;;1.67;;
438;SDS011;206;48.782;9.252;2022-08-07T00:47:23;3.10;;;1.60;;
438;SDS011;206;48.782;9.252;2022-08-07T00:49:49;4.93;;;1.80;;
438;SDS011;206;48.782;9.252;2022-08-07T00:52:14;2.43;;;1.50;;
438;SDS011;206;48.782;9.252;2022-08-07T00:54:40;2.10;;;1.90;;
438;SDS011;206;48.782;9.252;2022-08-07T00:57:06;2.40;;;1.20;;
438;SDS011;206;48.782;9.252;2022-08-07T00:59:34;3.70;;;1.40;;
438;SDS011;206;48.782;9.252;2022-08-07T01:02:00;2.90;;;1.57;;
438;SDS011;206;48.782;9.252;2022-08-07T01:04:27;2.27;;;1.40;;
438;SDS011;206;48.782;9.252;2022-08-07T01:06:53;2.37;;;1.50;;
438;SDS011;206;48.782;9.252;2022-08-07T01:09:20;3.20;;;2.10;;
438;SDS011;206;48.782;9.252;2022-08-07T01:11:48;3.03;;;1.60;;
438;SDS011;206;48.782;9.252;2022-08-07T01:14:15;2.27;;;1.43;;
438;SDS011;206;48.782;9.252;2022-08-07T01:16:41;1.40;;;1.37;;
438;SDS011;206;48.782;9.252;2022-08-07T01:19:07;7.20;;;1.73;;
438;SDS011;206;48.782;9.252;2022-08-07T01:21:33;1.90;;;1.40;;
438;SDS011;206;48.782;9.252;2022-08-07T01:23:59;1.60;;;1.53;;
438;SDS011;206;48.782;9.252;2022-08-07T01:26:26;2.10;;;1.40;;
438;SDS011;206;48.782;9.252;2022-08-07T01:28:52;2.63;;;1.70;;
438;SDS011;206;48.782;9.252;2022-08-07T01:31:18;2.57;;;2.03;;
438;SDS011;206;48.782;9.252;2022-08-07T01:33:45;5.80;;;1.50;;
438;SDS011;206;48.782;9.252;2022-08-07T01:36:11;2.50;;;1.60;;
438;SDS011;206;48.782;9.252;2022-08-07T01:38:37;1.40;;;1.30;;
438;SDS011;206;48.782;9.252;2022-08-07T01:41:04;1.53;;;1.13;;
438;SDS011;206;48.782;9.252;2022-08-07T01:43:33;1.87;;;1.70;;
438;SDS011;206;48.782;9.252;2022-08-07T01:46:00;1.77;;;1.67;;
438;SDS011;206;48.782;9.252;2022-08-07T01:48:27;5.53;;;1.70;;
438;SDS011;206;48.782;9.252;2022-08-07T01:50:55;3.10;;;1.50;;
438;SDS011;206;48.782;9.252;2022-08-07T01:53:24;1.80;;;1.20;;
438;SDS011;206;48.782;9.252;2022-08-07T01:55:54;5.23;;;2.10;;
438;SDS011;206;48.782;9.252;2022-08-07T01:58:23;2.83;;;1.47;;
438;SDS011;206;48.782;9.252;2022-08-07T02:00:58;2.90;;;1.57;;
438;SDS011;206;48.782;9.252;2022-08-07T02:03:26;2.70;;;1.53;;
438;SDS011;206;48.782;9.252;2022-08-07T02:05:55;1.60;;;1.10;;
438;SDS011;206;48.782;9.252;2022-08-07T02:08:24;2.70;;;1.90;;
438;SDS011;206;48.782;9.252;2022-08-07T02:10:52;5.80;;;1.93;;
438;SDS011;206;48.782;9.252;2022-08-07T02:13:25;1.63;;;1.43;;
438;SDS011;206;48.782;9.252;2022-08-07T02:15:53;5.83;;;1.70;;
438;SDS011;206;48.782;9.252;2022-08-07T02:18:20;2.20;;;1.60;;
438;SDS011;206;48.782;9.252;2022-08-07T02:20:47;3.00;;;1.47;;
438;SDS011;206;48.782;9.252;2022-08-07T02:23:17;3.20;;;1.50;;
438;SDS011;206;48.782;9.252;2022-08-07T02:25:44;1.60;;;1.60;;
438;SDS011;206;48.782;9.252;2022-08-07T02:28:11;2.33;;;1.23;;
438;SDS011;206;48.782;9.252;2022-08-07T02:30:38;1.73;;;1.60;;
438;SDS011;206;48.782;9.252;2022-08-07T02:33:06;1.53;;;1.40;;
438;SDS011;206;48.782;9.252;2022-08-07T02:35:33;3.53;;;3.33;;
438;SDS011;206;48.782;9.252;2022-08-07T02:38:01;1.10;;;1.07;;
438;SDS011;206;48.782;9.252;2022-08-07T02:40:28;2.33;;;1.50;;
438;SDS011;206;48.782;9.252;2022-08-07T02:42:55;3.40;;;1.60;;
438;SDS011;206;48.782;9.252;2022-08-07T02:45:22;1.60;;;1.50;;
438;SDS011;206;48.782;9.252;2022-08-07T02:47:51;3.67;;;1.63;;
438;SDS011;206;48.782;9.252;2022-08-07T02:50:17;1.60;;;1.50;;
438;SDS011;206;48.782;9.252;2022-08-07T02:52:50;2.83;;;1.50;;
438;SDS011;206;48.782;9.252;2022-08-07T02:55:20;3.03;;;1.57;;
438;SDS011;206;48.782;9.252;2022-08-07T02:57:49;2.53;;;1.63;;
438;SDS011;206;48.782;9.252;2022-08-07T03:00:17;1.67;;;1.53;;
438;SDS011;206;48.782;9.252;2022-08-07T03:02:46;1.67;;;1.30;;
438;SDS011;206;48.782;9.252;2022-08-07T03:05:14;1.20;;;1.20;;
438;SDS011;206;48.782;9.252;2022-08-07T03:07:41;1.77;;;1.23;;
438;SDS011;206;48.782;9.252;2022-08-07T03:10:09;2.23;;;1.67;;
438;SDS011;206;48.782;9.252;2022-08-07T03:12:35;2.03;;;1.57;;
438;SDS011;206;48.782;9.252;2022-08-07T03:15:02;2.70;;;1.20;;
438;SDS011;206;48.782;9.252;2022-08-07T03:17:29;1.50;;;1.43;;
438;SDS011;206;48.782;9.252;2022-08-07T03:19:56;4.90;;;1.30;;
438;SDS011;206;48.782;9.252;2022-08-07T03:22:22;1.70;;;1.63;;
438;SDS011;206;48.782;9.252;2022-08-07T03:24:48;3.00;;;1.93;;
438;SDS011;206;48.782;9.252;2022-08-07T03:27:15;1.33;;;1.33;;
438;SDS011;206;48.782;9.252;2022-08-07T03:29:45;1.80;;;1.67;;
438;SDS011;206;48.782;9.252;2022-08-07T03:32:15;1.63;;;1.57;;
438;SDS011;206;48.782;9.252;2022-08-07T03:34:44;1.57;;;1.43;;
438;SDS011;206;48.782;9.252;2022-08-07T03:37:12;1.60;;;1.37;;
438;SDS011;206;48.782;9.252;2022-08-07T03:39:40;1.37;;;1.33;;
438;SDS011;206;48.782;9.252;2022-08-07T03:42:06;1.43;;;1.40;;
438;SDS011;206;48.782;9.252;2022-08-07T03:44:33;1.53;;;1.30;;
438;SDS011;206;48.782;9.252;2022-08-07T03:47:00;2.10;;;1.47;;
438;SDS011;206;48.782;9.252;2022-08-07T03:49:26;1.90;;;1.40;;
438;SDS011;206;48.782;9.252;2022-08-07T03:51:53;3.00;;;1.50;;
438;SDS011;206;48.782;9.252;2022-08-07T03:54:20;3.20;;;1.30;;
438;SDS011;206;48.782;9.252;2022-08-07T03:56:46;3.20;;;1.80;;
438;SDS011;206;48.782;9.252;2022-08-07T03:59:13;2.30;;;1.87;;
438;SDS011;206;48.782;9.252;2022-08-07T04:01:40;3.63;;;1.27;;
438;SDS011;206;48.782;9.252;2022-08-07T04:04:07;1.90;;;1.40;;
438;SDS011;206;48.782;9.252;2022-08-07T04:06:35;3.23;;;1.53;;
438;SDS011;206;48.782;9.252;2022-08-07T04:09:02;3.40;;;1.47;;
438;SDS011;206;48.782;9.252;2022-08-07T04:11:28;1.70;;;1.40;;
438;SDS011;206;48.782;9.252;2022-08-07T04:13:55;2.07;;;1.20;;
438;SDS011;206;48.782;9.252;2022-08-07T04:16:22;2.17;;;1.77;;
438;SDS011;206;48.782;9.252;2022-08-07T04:18:48;2.27;;;1.00;;
438;SDS011;206;48.782;9.252;2022-08-07T04:21:14;2.47;;;1.90;;
438;SDS011;206;48.782;9.252;2022-08-07T04:23:40;1.77;;;1.47;;
438;SDS011;206;48.782;9.252;2022-08-07T04:26:07;2.57;;;1.67;;
438;SDS011;206;48.782;9.252;2022-08-07T04:28:32;1.80;;;1.30;;
438;SDS011;206;48.782;9.252;2022-08-07T04:30:58;1.67;;;1.60;;
438;SDS011;206;48.782;9.252;2022-08-07T04:33:24;2.60;;;1.60;;
438;SDS011;206;48.782;9.252;2022-08-07T04:35:51;1.87;;;1.50;;
438;SDS011;206;48.782;9.252;2022-08-07T04:38:18;1.30;;;1.23;;
438;SDS011;206;48.782;9.252;2022-08-07T04:40:44;1.53;;;1.27;;
438;SDS011;206;48.782;9.252;2022-08-07T04:43:11;4.10;;;1.50;;
438;SDS011;206;48.782;9.252;2022-08-07T04:48:38;3.23;;;1.20;;
438;SDS011;206;48.782;9.252;2022-08-07T04:51:23;2.00;;;1.40;;
438;SDS011;206;48.782;9.252;2022-08-07T05:05:29;4.73;;;1.33;;
438;SDS011;206;48.782;9.252;2022-08-07T05:08:00;2.13;;;1.27;;
438;SDS011;206;48.782;9.252;2022-08-07T05:10:32;1.50;;;1.50;;
438;SDS011;206;48.782;9.252;2022-08-07T05:13:06;1.73;;;1.33;;
438;SDS011;206;48.782;9.252;2022-08-07T05:15:44;1.77;;;1.70;;
438;SDS011;206;48.782;9.252;2022-08-07T05:18:29;2.10;;;1.50;;
438;SDS011;206;48.782;9.252;2022-08-07T05:21:02;2.00;;;1.90;;
438;SDS011;206;48.782;9.252;2022-08-07T05:23:40;1.70;;;1.67;;
438;SDS011;206;48.782;9.252;2022-08-07T05:26:12;1.30;;;1.23;;
438;SDS011;206;48.782;9.252;2022-08-07T05:28:40;2.07;;;1.93;;
438;SDS011;206;48.782;9.252;2022-08-07T05:31:07;1.97;;;1.87;;
438;SDS011;206;48.782;9.252;2022-08-07T05:33:35;1.90;;;1.80;;
438;SDS011;206;48.782;9.252;2022-08-07T05:36:02;3.33;;;1.77;;
438;SDS011;206;48.782;9.252;2022-08-07T05:38:31;4.03;;;2.20;;
438;SDS011;206;48.782;9.252;2022-08-07T05:40:57;2.40;;;2.20;;
438;SDS011;206;48.782;9.252;2022-08-07T05:43:23;2.23;;;2.03;;
438;SDS011;206;48.782;9.252;2022-08-07T05:45:49;2.73;;;2.50;;
438;SDS011;206;48.782;9.252;2022-08-07T05:48:15;2.00;;;1.90;;
438;SDS011;206;48.782;9.252;2022-08-07T05:50:43;3.07;;;2.40;;
438;SDS011;206;48.782;9.252;2022-08-07T05:53:09;2.80;;;1.90;;
438;SDS011;206;48.782;9.252;2022-08-07T05:55:35;2.90;;;2.10;;
438;SDS011;206;48.782;9.252;2022-08-07T05:58:02;4.33;;;2.70;;
438;SDS011;206;48.782;9.252;2022-08-07T06:00:30;3.40;;;2.53;;
438;SDS011;206;48.782;9.252;2022-08-07T06:02:58;2.43;;;2.23;;
438;SDS011;206;48.782;9.252;2022-08-07T06:05:25;2.80;;;1.83;;
438;SDS011;206;48.782;9.252;2022-08-07T06:07:52;2.97;;;2.27;;
438;SDS011;206;48.782;9.252;2022-08-07T06:10:19;2.60;;;2.40;;
438;SDS011;206;48.782;9.252;2022-08-07T06:12:45;3.50;;;2.40;;
438;SDS011;206;48.782;9.252;2022-08-07T06:15:13;3.17;;;2.40;;
438;SDS011;206;48.782;9.252;2022-08-07T06:17:40;2.80;;;2.60;;
438;SDS011;206;48.782;9.252;2022-08-07T06:20:07;7.47;;;2.83;;
438;SDS011;206;48.782;9.252;2022-08-07T06:22:34;5.10;;;2.77;;
438;SDS011;206;48.782;9.252;2022-08-07T06:25:06;2.53;;;2.33;;
438;SDS011;206;48.782;9.252;2022-08-07T06:27:32;5.43;;;3.37;;
438;SDS011;206;48.782;9.252;2022-08-07T06:29:59;4.87;;;2.90;;
438;SDS011;206;48.782;9.252;2022-08-07T06:32:25;3.87;;;3.70;;
438;SDS011;206;48.782;9.252;2022-08-07T06:34:50;3.57;;;2.77;;
438;SDS011;206;48.782;9.252;2022-08-07T06:37:16;3.70;;;2.53;;
438;SDS011;206;48.782;9.252;2022-08-07T06:39:42;3.23;;;3.03;;
438;SDS011;206;48.782;9.252;2022-08-07T06:42:10;2.60;;;2.40;;
438;SDS011;206;48.782;9.252;2022-08-07T06:44:51;2.97;;;2.80;;
438;SDS011;206;48.782;9.252;2022-08-07T06:47:18;5.43;;;3.00;;
438;SDS011;206;48.782;9.252;2022-08-07T06:49:44;3.80;;;3.10;;
438;SDS011;206;48.782;9.252;2022-08-07T06:52:10;2.80;;;2.60;;
438;SDS011;206;48.782;9.252;2022-08-07T06:54:38;3.47;;;3.33;;
438;SDS011;206;48.782;9.252;2022-08-07T06:57:05;3.80;;;2.53;;
438;SDS011;206;48.782;9.252;2022-08-07T06:59:37;5.30;;;3.40;;
438;SDS011;206;48.782;9.252;2022-08-07T07:02:04;3.43;;;2.97;;
438;SDS011;206;48.782;9.252;2022-08-07T07:04:33;2.97;;;2.40;;
438;SDS011;206;48.782;9.252;2022-08-07T07:07:00;2.50;;;2.30;;
438;SDS011;206;48.782;9.252;2022-08-07T07:09:26;3.17;;;2.80;;
438;SDS011;206;48.782;9.252;2022-08-07T07:12:02;2.73;;;2.10;;
438;SDS011;206;48.782;9.252;2022-08-07T07:17:31;2.30;;;1.93;;
438;SDS011;206;48.782;9.252;2022-08-07T07:20:30;1.63;;;1.53;;
438;SDS011;206;48.782;9.252;2022-08-07T07:22:59;2.10;;;1.80;;
438;SDS011;206;48.782;9.252;2022-08-07T07:25:26;4.27;;;2.20;;
438;SDS011;206;48.782;9.252;2022-08-07T07:27:52;1.80;;;1.80;;
438;SDS011;206;48.782;9.252;2022-08-07T07:30:23;2.20;;;2.00;;
438;SDS011;206;48.782;9.252;2022-08-07T07:32:54;2.47;;;2.17;;
438;SDS011;206;48.782;9.252;2022-08-07T07:35:23;3.30;;;2.20;;
438;SDS011;206;48.782;9.252;2022-08-07T07:37:49;2.80;;;1.77;;
438;SDS011;206;48.782;9.252;2022-08-07T07:40:17;2.23;;;1.67;;
438;SDS011;206;48.782;9.252;2022-08-07T07:42:45;1.90;;;1.30;;
438;SDS011;206;48.782;9.252;2022-08-07T07:45:15;3.83;;;1.60;;
438;SDS011;206;48.782;9.252;2022-08-07T07:47:43;1.40;;;1.30;;
438;SDS011;206;48.782;9.252;2022-08-07T07:50:10;2.70;;;1.33;;
438;SDS011;206;48.782;9.252;2022-08-07T07:52:40;1.57;;;1.50;;
438;SDS011;206;48.782;9.252;2022-08-07T07:55:09;2.07;;;1.53;;
438;SDS011;206;48.782;9.252;2022-08-07T07:57:34;2.00;;;1.63;;
438;SDS011;206;48.782;9.252;2022-08-07T08:00:02;1.47;;;1.10;;
438;SDS011;206;48.782;9.252;2022-08-07T08:02:28;1.37;;;1.30;;
438;SDS011;206;48.782;9.252;2022-08-07T08:04:56;1.37;;;1.30;;
438;SDS011;206;48.782;9.252;2022-08-07T08:07:25;1.27;;;1.20;;
438;SDS011;206;48.782;9.252;2022-08-07T08:09:51;2.00;;;1.50;;
438;SDS011;206;48.782;9.252;2022-08-07T08:12:18;1.43;;;1.23;;
438;SDS011;206;48.782;9.252;2022-08-07T08:14:45;3.00;;;1.97;;
438;SDS011;206;48.782;9.252;2022-08-07T08:17:11;1.90;;;1.63;;
438;SDS011;206;48.782;9.252;2022-08-07T08:19:39;1.70;;;1.53;;
438;SDS011;206;48.782;9.252;2022-08-07T08:22:06;2.30;;;1.57;;
438;SDS011;206;48.782;9.252;2022-08-07T08:24:53;2.40;;;1.40;;
438;SDS011;206;48.782;9.252;2022-08-07T08:27:40;1.33;;;1.30;;
438;SDS011;206;48.782;9.252;2022-08-07T08:30:08;1.13;;;1.10;;
438;SDS011;206;48.782;9.252;2022-08-07T08:32:37;2.83;;;1.63;;
438;SDS011;206;48.782;9.252;2022-08-07T08:35:06;1.40;;;1.40;;
438;SDS011;206;48.782;9.252;2022-08-07T08:37:34;1.30;;;1.07;;
438;SDS011;206;48.782;9.252;2022-08-07T08:40:01;1.60;;;1.13;;
438;SDS011;206;48.782;9.252;2022-08-07T08:42:36;1.00;;;1.00;;
438;SDS011;206;48.782;9.252;2022-08-07T08:45:15;1.70;;;1.07;;
438;SDS011;206;48.782;9.252;2022-08-07T08:50:29;4.30;;;1.10;;
438;SDS011;206;48.782;9.252;2022-08-07T08:53:09;2.30;;;1.57;;
438;SDS011;206;48.782;9.252;2022-08-07T08:55:58;1.63;;;1.27;;
438;SDS011;206;48.782;9.252;2022-08-07T09:01:36;3.10;;;1.00;;
438;SDS011;206;48.782;9.252;2022-08-07T09:07:18;2.83;;;1.10;;
438;SDS011;206;48.782;9.252;2022-08-07T09:10:13;0.80;;;0.80;;
438;SDS011;206;48.782;9.252;2022-08-07T09:18:13;1.73;;;1.13;;
438;SDS011;206;48.782;9.252;2022-08-07T09:21:05;0.97;;;0.77;;
438;SDS011;206;48.782;9.252;2022-08-07T09:23:58;1.10;;;1.10;;
438;SDS011;206;48.782;9.252;2022-08-07T09:26:31;1.17;;;0.93;;
438;SDS011;206;48.782;9.252;2022-08-07T09:29:25;1.00;;;0.90;;
438;SDS011;206;48.782;9.252;2022-08-07T09:51:30;0.87;;;0.80;;
438;SDS011;206;48.782;9.252;2022-08-07T09:54:19;2.20;;;1.20;;
438;SDS011;206;48.782;9.252;2022-08-07T10:05:34;2.13;;;0.87;;
438;SDS011;206;48.782;9.252;2022-08-07T10:10:57;0.83;;;0.77;;
438;SDS011;206;48.782;9.252;2022-08-07T10:13:35;2.17;;;0.80;;
438;SDS011;206;48.782;9.252;2022-08-07T10:16:14;1.00;;;0.70;;
438;SDS011;206;48.782;9.252;2022-08-07T10:27:08;0.87;;;0.80;;
438;SDS011;206;48.782;9.252;2022-08-07T10:30:00;1.33;;;0.97;;
438;SDS011;206;48.782;9.252;2022-08-07T10:35:18;1.53;;;0.90;;
438;SDS011;206;48.782;9.252;2022-08-07T10:38:05;1.30;;;0.87;;
438;SDS011;206;48.782;9.252;2022-08-07T10:43:38;0.80;;;0.70;;
438;SDS011;206;48.782;9.252;2022-08-07T10:46:18;1.93;;;0.60;;
438;SDS011;206;48.782;9.252;2022-08-07T10:51:37;1.23;;;0.80;;
438;SDS011;206;48.782;9.252;2022-08-07T10:54:17;1.97;;;1.23;;
438;SDS011;206;48.782;9.252;2022-08-07T10:57:02;0.90;;;0.80;;
438;SDS011;206;48.782;9.252;2022-08-07T10:59:45;0.93;;;0.90;;
438;SDS011;206;48.782;9.252;2022-08-07T11:02:43;0.93;;;0.87;;
438;SDS011;206;48.782;9.252;2022-08-07T11:11:14;2.90;;;0.83;;
438;SDS011;206;48.782;9.252;2022-08-07T11:14:02;1.90;;;0.70;;
438;SDS011;206;48.782;9.252;2022-08-07T11:16:36;1.43;;;0.97;;
438;SDS011;206;48.782;9.252;2022-08-07T11:19:14;6.93;;;0.90;;
438;SDS011;206;48.782;9.252;2022-08-07T11:24:44;1.30;;;0.90;;
438;SDS011;206;48.782;9.252;2022-08-07T11:36:12;1.27;;;0.80;;
438;SDS011;206;48.782;9.252;2022-08-07T11:38:52;1.90;;;0.90;;
438;SDS011;206;48.782;9.252;2022-08-07T11:41:46;3.20;;;0.80;;
438;SDS011;206;48.782;9.252;2022-08-07T11:47:03;2.43;;;0.60;;
438;SDS011;206;48.782;9.252;2022-08-07T11:58:20;0.93;;;0.83;;
438;SDS011;206;48.782;9.252;2022-08-07T12:00:55;1.00;;;0.70;;
438;SDS011;206;48.782;9.252;2022-08-07T12:03:52;0.90;;;0.70;;
438;SDS011;206;48.782;9.252;2022-08-07T12:06:45;1.73;;;1.00;;
438;SDS011;206;48.782;9.252;2022-08-07T12:09:21;1.57;;;0.93;;
438;SDS011;206;48.782;9.252;2022-08-07T12:12:24;1.97;;;0.83;;
438;SDS011;206;48.782;9.252;2022-08-07T12:15:00;0.93;;;0.87;;
438;SDS011;206;48.782;9.252;2022-08-07T12:17:38;1.20;;;1.00;;
438;SDS011;206;48.782;9.252;2022-08-07T12:20:32;1.57;;;0.90;;
438;SDS011;206;48.782;9.252;2022-08-07T12:26:08;1.07;;;0.80;;
438;SDS011;206;48.782;9.252;2022-08-07T12:28:52;1.33;;;1.30;;
438;SDS011;206;48.782;9.252;2022-08-07T12:31:35;1.57;;;1.07;;
438;SDS011;206;48.782;9.252;2022-08-07T12:34:07;0.70;;;0.60;;
438;SDS011;206;48.782;9.252;2022-08-07T12:36:35;1.40;;;1.10;;
438;SDS011;206;48.782;9.252;2022-08-07T12:39:05;1.33;;;1.07;;
438;SDS011;206;48.782;9.252;2022-08-07T12:41:35;1.13;;;0.93;;
438;SDS011;206;48.782;9.252;2022-08-07T12:44:06;2.70;;;0.90;;
438;SDS011;206;48.782;9.252;2022-08-07T12:46:39;0.80;;;0.70;;
438;SDS011;206;48.782;9.252;2022-08-07T12:49:32;1.13;;;0.93;;
438;SDS011;206;48.782;9.252;2022-08-07T12:52:04;1.00;;;0.93;;
438;SDS011;206;48.782;9.252;2022-08-07T12:54:43;1.00;;;0.90;;
438;SDS011;206;48.782;9.252;2022-08-07T12:57:16;1.20;;;0.80;;
438;SDS011;206;48.782;9.252;2022-08-07T12:59:47;3.33;;;1.10;;
438;SDS011;206;48.782;9.252;2022-08-07T13:13:39;1.20;;;1.13;;
438;SDS011;206;48.782;9.252;2022-08-07T13:21:42;1.90;;;0.97;;
438;SDS011;206;48.782;9.252;2022-08-07T13:24:17;3.53;;;1.13;;
438;SDS011;206;48.782;9.252;2022-08-07T13:26:53;2.70;;;1.43;;
438;SDS011;206;48.782;9.252;2022-08-07T13:29:37;1.87;;;1.30;;
438;SDS011;206;48.782;9.252;2022-08-07T13:32:42;1.00;;;0.60;;
438;SDS011;206;48.782;9.252;2022-08-07T13:35:21;1.50;;;1.00;;
438;SDS011;206;48.782;9.252;2022-08-07T13:37:57;2.60;;;1.70;;
438;SDS011;206;48.782;9.252;2022-08-07T13:40:35;1.77;;;1.03;;
438;SDS011;206;48.782;9.252;2022-08-07T13:43:10;1.60;;;1.47;;
438;SDS011;206;48.782;9.252;2022-08-07T13:45:39;3.40;;;1.53;;
438;SDS011;206;48.782;9.252;2022-08-07T13:48:07;2.50;;;1.07;;
438;SDS011;206;48.782;9.252;2022-08-07T13:50:38;1.67;;;1.27;;
438;SDS011;206;48.782;9.252;2022-08-07T13:53:06;1.63;;;0.80;;
438;SDS011;206;48.782;9.252;2022-08-07T13:55:33;1.10;;;0.87;;
438;SDS011;206;48.782;9.252;2022-08-07T13:58:04;1.40;;;1.10;;
438;SDS011;206;48.782;9.252;2022-08-07T14:00:50;1.30;;;0.93;;
438;SDS011;206;48.782;9.252;2022-08-07T14:03:18;1.20;;;0.90;;
438;SDS011;206;48.782;9.252;2022-08-07T14:05:46;1.07;;;0.97;;
438;SDS011;206;48.782;9.252;2022-08-07T14:08:16;1.40;;;0.70;;
438;SDS011;206;48.782;9.252;2022-08-07T14:10:44;1.17;;;1.07;;
438;SDS011;206;48.782;9.252;2022-08-07T14:13:13;1.20;;;0.83;;
438;SDS011;206;48.782;9.252;2022-08-07T14:15:42;0.77;;;0.63;;
438;SDS011;206;48.782;9.252;2022-08-07T14:18:20;1.83;;;0.73;;
438;SDS011;206;48.782;9.252;2022-08-07T14:20:50;3.03;;;1.03;;
438;SDS011;206;48.782;9.252;2022-08-07T14:23:24;1.60;;;1.33;;
438;SDS011;206;48.782;9.252;2022-08-07T14:25:54;0.80;;;0.80;;
438;SDS011;206;48.782;9.252;2022-08-07T14:28:24;2.83;;;1.07;;
438;SDS011;206;48.782;9.252;2022-08-07T14:30:52;1.47;;;1.00;;
438;SDS011;206;48.782;9.252;2022-08-07T14:33:19;1.90;;;1.20;;
438;SDS011;206;48.782;9.252;2022-08-07T14:35:46;1.00;;;0.90;;
438;SDS011;206;48.782;9.252;2022-08-07T14:38:13;1.10;;;1.00;;
438;SDS011;206;48.782;9.252;2022-08-07T14:40:39;1.33;;;0.90;;
438;SDS011;206;48.782;9.252;2022-08-07T14:43:09;0.97;;;0.97;;
438;SDS011;206;48.782;9.252;2022-08-07T14:48:09;1.23;;;0.97;;
438;SDS011;206;48.782;9.252;2022-08-07T14:50:58;1.40;;;0.90;;
438;SDS011;206;48.782;9.252;2022-08-07T14:53:24;1.40;;;1.10;;
438;SDS011;206;48.782;9.252;2022-08-07T14:55:54;1.53;;;1.23;;
438;SDS011;206;48.782;9.252;2022-08-07T14:58:24;1.20;;;1.10;;
438;SDS011;206;48.782;9.252;2022-08-07T15:00:55;0.80;;;0.70;;
438;SDS011;206;48.782;9.252;2022-08-07T15:03:24;1.60;;;0.90;;
438;SDS011;206;48.782;9.252;2022-08-07T15:05:52;1.03;;;1.00;;
438;SDS011;206;48.782;9.252;2022-08-07T15:08:23;1.33;;;1.00;;
438;SDS011;206;48.782;9.252;2022-08-07T15:10:56;1.83;;;1.30;;
438;SDS011;206;48.782;9.252;2022-08-07T15:13:24;3.80;;;0.80;;
438;SDS011;206;48.782;9.252;2022-08-07T15:15:52;3.67;;;1.03;;
438;SDS011;206;48.782;9.252;2022-08-07T15:18:34;1.23;;;0.97;;
438;SDS011;206;48.782;9.252;2022-08-07T15:21:04;1.00;;;1.00;;
438;SDS011;206;48.782;9.252;2022-08-07T15:23:33;0.83;;;0.70;;
438;SDS011;206;48.782;9.252;2022-08-07T15:26:02;1.47;;;1.40;;
438;SDS011;206;48.782;9.252;2022-08-07T15:28:31;1.20;;;1.20;;
438;SDS011;206;48.782;9.252;2022-08-07T15:31:02;2.23;;;0.93;;
438;SDS011;206;48.782;9.252;2022-08-07T15:33:32;1.23;;;1.13;;
438;SDS011;206;48.782;9.252;2022-08-07T15:36:02;1.17;;;1.00;;
438;SDS011;206;48.782;9.252;2022-08-07T15:38:32;1.30;;;1.20;;
438;SDS011;206;48.782;9.252;2022-08-07T15:41:03;2.67;;;1.40;;
438;SDS011;206;48.782;9.252;2022-08-07T15:43:34;1.03;;;0.97;;
438;SDS011;206;48.782;9.252;2022-08-07T15:46:15;1.20;;;1.10;;
438;SDS011;206;48.782;9.252;2022-08-07T15:48:52;1.33;;;1.23;;
438;SDS011;206;48.782;9.252;2022-08-07T15:51:21;1.40;;;1.10;;
438;SDS011;206;48.782;9.252;2022-08-07T15:53:53;1.10;;;1.00;;
438;SDS011;206;48.782;9.252;2022-08-07T15:56:22;3.00;;;1.40;;
438;SDS011;206;48.782;9.252;2022-08-07T15:58:57;1.20;;;1.10;;
438;SDS011;206;48.782;9.252;2022-08-07T16:01:37;1.73;;;1.10;;
438;SDS011;206;48.782;9.252;2022-08-07T16:04:07;1.47;;;1.20;;
438;SDS011;206;48.782;9.252;2022-08-07T16:06:36;2.83;;;1.40;;
438;SDS011;206;48.782;9.252;2022-08-07T16:09:51;1.20;;;1.10;;
438;SDS011;206;48.782;9.252;2022-08-07T16:11:56;1.00;;;0.97;;
438;SDS011;206;48.782;9.252;2022-08-07T16:14:35;1.30;;;1.20;;
438;SDS011;206;48.782;9.252;2022-08-07T16:29:00;1.77;;;0.80;;
438;SDS011;206;48.782;9.252;2022-08-07T16:34:43;1.00;;;1.00;;
438;SDS011;206;48.782;9.252;2022-08-07T16:43:06;1.87;;;1.47;;
438;SDS011;206;48.782;9.252;2022-08-07T16:46:03;1.43;;;1.10;;
438;SDS011;206;48.782;9.252;2022-08-07T16:54:32;1.57;;;0.83;;
438;SDS011;206;48.782;9.252;2022-08-07T17:05:10;1.20;;;1.00;;
438;SDS011;206;48.782;9.252;2022-08-07T17:07:46;1.83;;;1.20;;
438;SDS011;206;48.782;9.252;2022-08-07T17:15:43;1.30;;;1.00;;
438;SDS011;206;48.782;9.252;2022-08-07T17:18:24;2.93;;;0.90;;
438;SDS011;206;48.782;9.252;2022-08-07T17:20:59;3.73;;;1.10;;
438;SDS011;206;48.782;9.252;2022-08-07T17:23:33;1.23;;;0.90;;
438;SDS011;206;48.782;9.252;2022-08-07T17:31:24;1.33;;;0.97;;
438;SDS011;206;48.782;9.252;2022-08-07T17:34:10;0.90;;;0.90;;
438;SDS011;206;48.782;9.252;2022-08-07T17:36:58;1.33;;;1.30;;
438;SDS011;206;48.782;9.252;2022-08-07T17:45:00;1.70;;;1.40;;
438;SDS011;206;48.782;9.252;2022-08-07T17:47:38;2.43;;;0.90;;
438;SDS011;206;48.782;9.252;2022-08-07T17:50:17;1.93;;;0.90;;
438;SDS011;206;48.782;9.252;2022-08-07T17:55:48;1.10;;;0.93;;
438;SDS011;206;48.782;9.252;2022-08-07T18:01:18;1.17;;;1.13;;
438;SDS011;206;48.782;9.252;2022-08-07T18:06:30;3.33;;;1.17;;
438;SDS011;206;48.782;9.252;2022-08-07T18:09:02;1.40;;;1.30;;
438;SDS011;206;48.782;9.252;2022-08-07T18:11:31;1.80;;;1.40;;
438;SDS011;206;48.782;9.252;2022-08-07T18:16:56;1.50;;;1.20;;
438;SDS011;206;48.782;9.252;2022-08-07T18:19:45;1.53;;;1.00;;
438;SDS011;206;48.782;9.252;2022-08-07T18:22:23;1.10;;;0.90;;
438;SDS011;206;48.782;9.252;2022-08-07T18:24:56;2.77;;;1.40;;
438;SDS011;206;48.782;9.252;2022-08-07T18:30:09;1.50;;;1.20;;
438;SDS011;206;48.782;9.252;2022-08-07T18:46:49;1.37;;;1.03;;
438;SDS011;206;48.782;9.252;2022-08-07T18:55:01;1.10;;;0.70;;
438;SDS011;206;48.782;9.252;2022-08-07T18:57:51;1.13;;;1.10;;
438;SDS011;206;48.782;9.252;2022-08-07T19:00:20;0.90;;;0.70;;
438;SDS011;206;48.782;9.252;2022-08-07T19:02:57;1.23;;;0.97;;
438;SDS011;206;48.782;9.252;2022-08-07T19:05:38;1.50;;;1.20;;
438;SDS011;206;48.782;9.252;2022-08-07T19:11:19;1.97;;;1.77;;
438;SDS011;206;48.782;9.252;2022-08-07T19:13:54;1.73;;;1.20;;
438;SDS011;206;48.782;9.252;2022-08-07T19:16:45;1.47;;;1.10;;
438;SDS011;206;48.782;9.252;2022-08-07T19:19:26;4.63;;;1.07;;
438;SDS011;206;48.782;9.252;2022-08-07T19:22:11;1.80;;;1.03;;
438;SDS011;206;48.782;9.252;2022-08-07T19:24:59;2.10;;;1.27;;
438;SDS011;206;48.782;9.252;2022-08-07T19:27:29;1.50;;;1.30;;
438;SDS011;206;48.782;9.252;2022-08-07T19:29:59;1.10;;;1.07;;
438;SDS011;206;48.782;9.252;2022-08-07T19:32:25;0.97;;;0.90;;
438;SDS011;206;48.782;9.252;2022-08-07T19:34:59;1.70;;;1.30;;
438;SDS011;206;48.782;9.252;2022-08-07T19:37:26;2.10;;;1.50;;
438;SDS011;206;48.782;9.252;2022-08-07T19:40:03;1.40;;;1.10;;
438;SDS011;206;48.782;9.252;2022-08-07T19:42:30;1.23;;;1.13;;
438;SDS011;206;48.782;9.252;2022-08-07T19:45:03;1.70;;;1.30;;
438;SDS011;206;48.782;9.252;2022-08-07T19:47:33;4.67;;;1.27;;
438;SDS011;206;48.782;9.252;2022-08-07T19:50:04;1.53;;;1.00;;
438;SDS011;206;48.782;9.252;2022-08-07T19:52:30;2.63;;;1.57;;